createdAt,value
2022-12-25T00:01:20.727Z,9.20
2022-12-25T00:04:07.000Z,15.30
2022-12-25T00:06:53.613Z,17.20
2022-12-25T00:09:40.238Z,17.10
2022-12-25T00:12:26.343Z,21.90
2022-12-25T00:15:12.690Z,21.80
2022-12-25T00:17:58.999Z,25.80
2022-12-25T00:20:45.229Z,22.40
2022-12-25T00:23:31.947Z,28.10
2022-12-25T00:26:18.156Z,28.30
2022-12-25T00:29:04.693Z,22.90
2022-12-25T00:31:50.911Z,20.30
2022-12-25T00:34:37.536Z,20.90
2022-12-25T00:37:23.899Z,26.40
2022-12-25T00:40:10.487Z,39.40
2022-12-25T00:42:56.731Z,38.30
2022-12-25T00:45:43.005Z,20.70
2022-12-25T00:48:29.501Z,24.50
2022-12-25T00:51:15.859Z,14.20
2022-12-25T00:54:02.210Z,13.80
2022-12-25T00:56:48.680Z,11.30
2022-12-25T00:59:35.118Z,11.50
2022-12-25T01:02:24.656Z,12.80
2022-12-25T01:05:11.170Z,11.70
2022-12-25T01:07:57.524Z,9.30
2022-12-25T01:10:44.020Z,11.50
2022-12-25T01:13:31.051Z,9.80
2022-12-25T01:16:17.847Z,14.70
2022-12-25T01:19:04.453Z,12.30
2022-12-25T01:21:50.711Z,12.40
2022-12-25T01:24:37.050Z,11.60
2022-12-25T01:27:23.711Z,10.90
2022-12-25T01:30:10.643Z,9.20
2022-12-25T01:32:57.352Z,8.10
2022-12-25T01:35:43.631Z,8.30
2022-12-25T01:38:29.880Z,9.80
2022-12-25T01:41:18.120Z,11.00
2022-12-25T01:44:28.977Z,8.10
2022-12-25T01:47:15.288Z,10.70
2022-12-25T01:50:01.956Z,10.90
2022-12-25T01:52:48.667Z,11.40
2022-12-25T01:55:35.435Z,9.30
2022-12-25T01:58:22.010Z,9.30
2022-12-25T02:01:08.487Z,12.20
2022-12-25T02:03:57.123Z,13.90
2022-12-25T02:06:43.528Z,10.20
2022-12-25T02:09:29.946Z,6.40
2022-12-25T02:12:29.697Z,6.80
2022-12-25T02:15:19.930Z,9.00
2022-12-25T02:18:14.293Z,10.50
2022-12-25T02:21:04.218Z,7.50
2022-12-25T02:24:08.645Z,7.10
2022-12-25T02:27:19.618Z,11.20
2022-12-25T02:30:07.927Z,6.70
2022-12-25T02:33:18.999Z,8.20
2022-12-25T02:36:07.357Z,6.10
2022-12-25T02:39:13.634Z,6.40
2022-12-25T02:42:01.145Z,9.60
2022-12-25T02:45:06.436Z,7.10
2022-12-25T02:48:11.192Z,6.50
2022-12-25T02:51:16.446Z,8.50
2022-12-25T02:54:24.270Z,7.00
2022-12-25T02:57:30.145Z,6.80
2022-12-25T03:00:35.169Z,10.10
2022-12-25T03:03:40.974Z,9.70
2022-12-25T03:06:43.841Z,10.70
2022-12-25T03:09:52.618Z,10.00
2022-12-25T03:12:55.665Z,8.30
2022-12-25T03:16:00.376Z,7.20
2022-12-25T03:18:46.467Z,7.60
2022-12-25T03:21:51.148Z,5.60
2022-12-25T03:24:55.931Z,5.50
2022-12-25T03:27:41.992Z,9.20
2022-12-25T03:30:54.106Z,8.00
2022-12-25T03:34:37.035Z,7.40
2022-12-25T03:37:44.227Z,5.70
2022-12-25T03:41:18.650Z,8.10
2022-12-25T03:44:34.393Z,8.70
2022-12-25T03:47:35.051Z,8.80
2022-12-25T03:50:42.695Z,9.30
2022-12-25T03:53:49.421Z,8.80
2022-12-25T03:56:55.339Z,9.40
2022-12-25T04:00:00.252Z,7.20
2022-12-25T04:03:05.093Z,7.90
2022-12-25T04:06:09.576Z,7.60
2022-12-25T04:09:14.390Z,6.00
2022-12-25T04:12:18.831Z,8.40
2022-12-25T04:15:24.462Z,8.40
2022-12-25T04:18:29.220Z,7.20
2022-12-25T04:21:33.892Z,7.00
2022-12-25T04:24:38.484Z,4.80
2022-12-25T04:27:43.073Z,6.20
2022-12-25T04:30:47.836Z,6.00
2022-12-25T04:33:52.603Z,7.80
2022-12-25T04:36:38.789Z,7.40
2022-12-25T04:39:25.227Z,6.40
2022-12-25T04:42:11.334Z,10.50
2022-12-25T04:44:58.039Z,5.80
2022-12-25T04:47:44.026Z,9.30
2022-12-25T04:50:30.619Z,5.60
2022-12-25T04:53:17.221Z,7.00
2022-12-25T04:56:03.769Z,8.70
2022-12-25T04:58:50.265Z,9.10
2022-12-25T05:01:36.738Z,7.60
2022-12-25T05:04:22.864Z,9.60
2022-12-25T05:07:09.272Z,11.50
2022-12-25T05:09:55.812Z,9.70
2022-12-25T05:12:42.143Z,11.30
2022-12-25T05:15:28.623Z,13.10
2022-12-25T05:18:15.117Z,11.50
2022-12-25T05:21:01.515Z,12.80
2022-12-25T05:23:51.643Z,14.30
2022-12-25T05:26:38.084Z,14.00
2022-12-25T05:29:24.365Z,15.70
2022-12-25T05:32:10.728Z,17.20
2022-12-25T05:34:57.121Z,18.40
2022-12-25T05:37:43.118Z,39.60
2022-12-25T05:40:29.484Z,54.60
2022-12-25T05:43:16.008Z,32.60
2022-12-25T05:46:07.246Z,23.30
2022-12-25T05:48:53.615Z,21.60
2022-12-25T05:51:40.229Z,23.70
2022-12-25T05:54:26.433Z,21.60
2022-12-25T05:57:12.722Z,17.90
2022-12-25T05:59:59.232Z,22.90
2022-12-25T06:02:46.106Z,20.10
2022-12-25T06:05:32.661Z,27.00
2022-12-25T06:08:19.077Z,24.40
2022-12-25T06:11:06.252Z,23.30
2022-12-25T06:13:53.039Z,29.60
2022-12-25T06:16:39.525Z,32.70
2022-12-25T06:19:25.974Z,37.20
2022-12-25T06:22:12.079Z,30.60
2022-12-25T06:24:58.508Z,35.60
2022-12-25T06:27:45.211Z,35.60
2022-12-25T06:30:32.065Z,30.50
2022-12-25T06:33:18.486Z,33.10
2022-12-25T06:36:15.017Z,38.70
2022-12-25T06:39:01.406Z,36.00
2022-12-25T06:41:47.956Z,35.40
2022-12-25T06:44:34.386Z,32.70
2022-12-25T06:47:20.564Z,26.40
2022-12-25T06:50:07.141Z,24.20
2022-12-25T06:52:53.271Z,20.40
2022-12-25T06:55:40.826Z,20.80
2022-12-25T06:58:27.062Z,19.10
2022-12-25T07:01:27.376Z,14.30
2022-12-25T07:04:18.374Z,11.20
2022-12-25T07:07:08.997Z,10.90
2022-12-25T07:09:56.159Z,10.00
2022-12-25T07:12:42.058Z,8.80
2022-12-25T07:15:28.644Z,9.90
2022-12-25T07:18:14.964Z,11.00
2022-12-25T07:21:19.937Z,7.70
2022-12-25T07:24:06.803Z,13.70
2022-12-25T07:26:53.465Z,14.50
2022-12-25T07:29:40.001Z,17.50
2022-12-25T07:32:30.388Z,12.60
2022-12-25T07:35:16.727Z,14.20
2022-12-25T07:38:03.073Z,13.50
2022-12-25T07:40:49.669Z,11.20
2022-12-25T07:43:35.932Z,13.40
2022-12-25T07:46:23.161Z,12.60
2022-12-25T07:49:10.169Z,13.20
2022-12-25T07:51:57.024Z,13.30
2022-12-25T07:54:43.567Z,10.80
2022-12-25T07:57:30.214Z,12.20
2022-12-25T08:00:17.591Z,14.70
2022-12-25T08:03:04.648Z,15.90
2022-12-25T08:05:51.045Z,15.60
2022-12-25T08:08:37.743Z,15.90
2022-12-25T08:11:24.164Z,14.20
2022-12-25T08:14:10.185Z,13.30
2022-12-25T08:16:56.794Z,11.90
2022-12-25T08:19:43.375Z,15.10
2022-12-25T08:22:30.096Z,9.50
2022-12-25T08:25:16.870Z,11.30
2022-12-25T08:28:03.308Z,14.70
2022-12-25T08:30:49.864Z,13.00
2022-12-25T08:33:36.660Z,13.00
2022-12-25T08:36:23.075Z,15.80
2022-12-25T08:39:09.349Z,15.40
2022-12-25T08:41:55.721Z,14.00
2022-12-25T08:44:42.032Z,14.10
2022-12-25T08:47:28.024Z,12.00
2022-12-25T08:50:14.525Z,15.80
2022-12-25T08:53:01.121Z,16.40
2022-12-25T08:55:47.572Z,13.80
2022-12-25T08:58:33.792Z,11.20
2022-12-25T09:01:20.386Z,13.20
2022-12-25T09:04:06.864Z,10.80
2022-12-25T09:06:53.331Z,10.80
2022-12-25T09:09:40.050Z,13.90
2022-12-25T09:12:26.265Z,11.20
2022-12-25T09:15:12.988Z,8.40
2022-12-25T09:17:59.616Z,12.30
2022-12-25T09:20:46.303Z,9.40
2022-12-25T09:23:32.727Z,11.80
2022-12-25T09:26:19.368Z,9.90
2022-12-25T09:29:05.906Z,6.70
2022-12-25T09:31:52.298Z,12.70
2022-12-25T09:34:39.228Z,12.90
2022-12-25T09:37:25.964Z,12.80
2022-12-25T09:40:19.159Z,10.10
2022-12-25T09:43:05.788Z,11.80
2022-12-25T09:45:52.190Z,11.30
2022-12-25T09:48:38.511Z,10.70
2022-12-25T09:51:24.779Z,11.40
2022-12-25T09:54:17.195Z,12.70
2022-12-25T09:57:03.802Z,10.90
2022-12-25T09:59:51.475Z,13.20
2022-12-25T10:03:05.876Z,12.20
2022-12-25T10:05:58.628Z,9.10
2022-12-25T10:08:46.727Z,8.90
2022-12-25T10:11:55.616Z,8.40
2022-12-25T10:15:07.178Z,8.20
2022-12-25T10:18:25.367Z,9.30
2022-12-25T10:21:16.759Z,9.60
2022-12-25T10:24:21.582Z,9.50
2022-12-25T10:27:15.088Z,4.20
2022-12-25T10:30:01.247Z,11.60
2022-12-25T10:32:48.100Z,6.70
2022-12-25T10:35:34.366Z,7.00
2022-12-25T10:38:20.773Z,6.80
2022-12-25T10:41:25.828Z,9.00
2022-12-25T10:44:24.258Z,7.50
2022-12-25T10:47:11.004Z,8.10
2022-12-25T10:49:57.884Z,7.50
2022-12-25T10:52:56.983Z,9.30
2022-12-25T10:55:43.652Z,6.20
2022-12-25T10:58:30.382Z,5.90
2022-12-25T11:01:17.047Z,10.50
2022-12-25T11:04:03.794Z,10.40
2022-12-25T11:06:57.646Z,10.60
2022-12-25T11:10:02.629Z,9.40
2022-12-25T11:15:42.463Z,9.40
2022-12-25T11:18:32.261Z,5.50
2022-12-25T11:21:21.930Z,10.10
2022-12-25T11:24:19.768Z,6.80
2022-12-25T11:27:09.177Z,7.00
2022-12-25T11:30:00.109Z,9.90
2022-12-25T11:32:48.797Z,8.50
2022-12-25T11:35:42.923Z,9.40
2022-12-25T11:38:30.172Z,13.20
2022-12-25T11:41:20.521Z,10.30
2022-12-25T11:46:55.018Z,10.60
2022-12-25T11:49:50.283Z,11.50
2022-12-25T11:52:37.804Z,12.60
2022-12-25T11:55:41.527Z,7.10
2022-12-25T11:58:33.216Z,9.90
2022-12-25T12:01:22.672Z,10.00
2022-12-25T12:04:30.859Z,8.80
2022-12-25T12:07:21.495Z,7.50
2022-12-25T12:10:17.807Z,8.20
2022-12-25T12:16:09.194Z,9.50
2022-12-25T12:18:55.739Z,8.30
2022-12-25T12:21:44.240Z,7.30
2022-12-25T12:24:40.707Z,6.30
2022-12-25T12:27:27.498Z,6.90
2022-12-25T12:30:27.825Z,6.80
2022-12-25T12:33:18.392Z,9.50
2022-12-25T12:36:04.784Z,9.90
2022-12-25T12:38:51.295Z,8.10
2022-12-25T12:41:45.815Z,7.80
2022-12-25T12:44:32.515Z,8.30
2022-12-25T12:47:41.511Z,9.90
2022-12-25T12:50:29.219Z,10.10
2022-12-25T12:53:38.201Z,7.50
2022-12-25T12:56:25.476Z,8.80
2022-12-25T12:59:12.187Z,6.70
2022-12-25T13:02:17.155Z,7.40
2022-12-25T13:05:37.533Z,4.40
2022-12-25T13:08:31.527Z,7.20
2022-12-25T13:11:28.943Z,7.60
2022-12-25T13:14:17.446Z,7.60
2022-12-25T13:17:03.737Z,7.50
2022-12-25T13:20:00.056Z,6.60
2022-12-25T13:22:52.425Z,6.00
2022-12-25T13:25:39.180Z,9.00
2022-12-25T13:28:33.098Z,7.10
2022-12-25T13:31:21.022Z,8.70
2022-12-25T13:34:34.490Z,6.50
2022-12-25T13:43:04.382Z,7.10
2022-12-25T13:45:54.379Z,5.60
2022-12-25T13:48:41.391Z,7.20
2022-12-25T13:51:28.450Z,6.20
2022-12-25T13:54:15.860Z,7.90
2022-12-25T13:57:02.228Z,8.40
2022-12-25T13:59:48.375Z,8.20
2022-12-25T14:02:36.330Z,10.10
2022-12-25T14:05:28.528Z,8.20
2022-12-25T14:08:16.465Z,8.80
2022-12-25T14:11:05.016Z,9.30
2022-12-25T14:13:54.543Z,14.40
2022-12-25T14:16:43.395Z,10.80
2022-12-25T14:19:33.911Z,8.60
2022-12-25T14:22:23.280Z,6.50
2022-12-25T14:25:14.782Z,11.40
2022-12-25T14:28:02.170Z,11.40
2022-12-25T14:30:48.596Z,14.00
2022-12-25T14:33:37.345Z,13.40
2022-12-25T14:36:23.655Z,11.00
2022-12-25T14:39:45.183Z,15.80
2022-12-25T14:42:33.364Z,15.40
2022-12-25T14:45:32.972Z,17.20
2022-12-25T14:48:25.534Z,25.40
2022-12-25T14:51:16.195Z,29.00
2022-12-25T14:56:51.610Z,17.80
2022-12-25T14:59:38.168Z,13.40
2022-12-25T15:02:24.557Z,14.40
2022-12-25T15:05:37.243Z,17.80
2022-12-25T15:08:24.289Z,19.90
2022-12-25T15:11:10.878Z,19.90
2022-12-25T15:13:57.075Z,19.40
2022-12-25T15:16:51.327Z,14.30
2022-12-25T15:19:38.902Z,19.30
2022-12-25T15:22:25.804Z,17.10
2022-12-25T15:25:14.395Z,20.90
2022-12-25T15:28:00.722Z,19.80
2022-12-25T15:30:47.030Z,15.40
2022-12-25T15:33:33.856Z,18.70
2022-12-25T15:36:20.635Z,19.90
2022-12-25T15:39:07.312Z,12.50
2022-12-25T15:42:11.555Z,9.20
2022-12-25T15:44:57.902Z,11.20
2022-12-25T15:47:44.149Z,21.70
2022-12-25T15:50:32.538Z,23.10
2022-12-25T15:53:18.993Z,14.20
2022-12-25T15:56:05.625Z,17.40
2022-12-25T15:58:52.314Z,21.20
2022-12-25T16:01:38.792Z,20.00
2022-12-25T16:04:25.486Z,17.90
2022-12-25T16:07:17.337Z,13.40
2022-12-25T16:10:05.824Z,14.80
2022-12-25T16:12:52.323Z,10.40
2022-12-25T16:15:38.702Z,12.40
2022-12-25T16:18:25.039Z,15.30
2022-12-25T16:21:16.645Z,14.30
2022-12-25T16:24:03.120Z,11.70
2022-12-25T16:26:49.478Z,12.50
2022-12-25T16:29:36.110Z,13.30
2022-12-25T16:32:22.689Z,12.20
2022-12-25T16:35:09.614Z,17.50
2022-12-25T16:37:57.133Z,12.80
2022-12-25T16:40:43.622Z,14.80
2022-12-25T16:43:29.668Z,17.40
2022-12-25T16:46:17.564Z,17.30
2022-12-25T16:49:04.023Z,13.90
2022-12-25T16:51:50.404Z,18.40
2022-12-25T16:54:37.055Z,18.40
2022-12-25T16:57:23.147Z,20.80
2022-12-25T17:00:10.138Z,14.70
2022-12-25T17:02:57.202Z,13.80
2022-12-25T17:05:43.976Z,14.50
2022-12-25T17:08:30.160Z,13.10
2022-12-25T17:11:16.606Z,10.70
2022-12-25T17:14:03.810Z,18.40
2022-12-25T17:16:51.062Z,28.80
2022-12-25T17:19:38.006Z,21.30
2022-12-25T17:22:24.521Z,15.30
2022-12-25T17:25:10.871Z,20.90
2022-12-25T17:27:57.284Z,18.00
2022-12-25T17:30:43.904Z,17.80
2022-12-25T17:33:30.235Z,18.30
2022-12-25T17:36:18.433Z,22.60
2022-12-25T17:39:05.509Z,26.20
2022-12-25T17:41:51.693Z,24.20
2022-12-25T17:44:38.119Z,23.80
2022-12-25T17:47:24.249Z,25.00
2022-12-25T17:50:10.610Z,25.20
2022-12-25T17:52:57.219Z,20.60
2022-12-25T17:55:43.996Z,22.30
2022-12-25T17:58:30.194Z,21.90
2022-12-25T18:01:16.452Z,18.50
2022-12-25T18:04:03.539Z,23.30
2022-12-25T18:06:49.840Z,22.10
2022-12-25T18:09:36.368Z,27.20
2022-12-25T18:12:22.690Z,15.60
2022-12-25T18:15:09.829Z,17.40
2022-12-25T18:17:56.249Z,31.60
2022-12-25T18:20:42.632Z,26.50
2022-12-25T18:23:29.325Z,32.90
2022-12-25T18:26:16.060Z,19.30
2022-12-25T18:29:02.368Z,25.90
2022-12-25T18:31:49.100Z,13.10
2022-12-25T18:34:35.267Z,22.00
2022-12-25T18:37:21.273Z,15.10
2022-12-25T18:40:08.804Z,17.10
2022-12-25T18:43:02.758Z,27.50
2022-12-25T18:45:57.212Z,16.90
2022-12-25T18:48:43.707Z,15.70
2022-12-25T18:51:36.636Z,21.40
2022-12-25T18:54:23.845Z,23.60
2022-12-25T18:57:10.478Z,17.50
2022-12-25T18:59:56.690Z,11.50
2022-12-25T19:02:43.159Z,21.20
2022-12-25T19:05:30.098Z,7.00
2022-12-25T19:08:16.529Z,12.10
2022-12-25T19:11:07.108Z,14.60
2022-12-25T19:13:53.592Z,13.30
2022-12-25T19:16:39.852Z,10.00
2022-12-25T19:19:26.684Z,18.30
2022-12-25T19:22:13.408Z,18.50
2022-12-25T19:24:59.673Z,15.80
2022-12-25T19:27:46.011Z,14.00
2022-12-25T19:30:32.307Z,16.70
2022-12-25T19:33:18.855Z,23.20
2022-12-25T19:36:17.368Z,23.10
2022-12-25T19:39:05.008Z,22.00
2022-12-25T19:41:51.560Z,15.30
2022-12-25T19:44:38.205Z,24.30
2022-12-25T19:47:24.248Z,21.60
2022-12-25T19:50:10.403Z,21.10
2022-12-25T19:52:56.991Z,22.00
2022-12-25T19:55:44.311Z,23.70
2022-12-25T19:58:30.720Z,21.90
2022-12-25T20:01:19.167Z,15.60
2022-12-25T20:04:09.701Z,20.90
2022-12-25T20:09:42.415Z,16.30
2022-12-25T20:12:28.623Z,11.50
2022-12-25T20:15:14.957Z,12.70
2022-12-25T20:18:02.928Z,16.00
2022-12-25T20:20:49.561Z,11.30
2022-12-25T20:23:36.196Z,22.40
2022-12-25T20:26:24.941Z,11.40
2022-12-25T20:29:11.492Z,14.10
2022-12-25T20:31:57.844Z,20.40
2022-12-25T20:34:44.558Z,5.90
2022-12-25T20:37:31.030Z,16.00
2022-12-25T20:40:17.486Z,17.40
2022-12-25T20:43:04.159Z,18.70
2022-12-25T20:45:51.553Z,17.80
2022-12-25T20:48:38.507Z,11.50
2022-12-25T20:51:25.333Z,21.10
2022-12-25T20:54:12.784Z,14.00
2022-12-25T20:56:59.427Z,10.90
2022-12-25T20:59:45.732Z,15.70
2022-12-25T21:02:36.715Z,11.40
2022-12-25T21:05:23.722Z,6.50
2022-12-25T21:08:10.381Z,22.40
2022-12-25T21:11:00.675Z,19.70
2022-12-25T21:13:47.204Z,12.30
2022-12-25T21:16:33.839Z,17.20
2022-12-25T21:19:20.220Z,18.10
2022-12-25T21:22:06.577Z,13.80
2022-12-25T21:24:53.419Z,12.00
2022-12-25T21:27:40.709Z,17.70
2022-12-25T21:30:27.205Z,18.50
2022-12-25T21:33:32.783Z,11.30
2022-12-25T21:36:19.438Z,5.80
2022-12-25T21:39:06.983Z,6.70
2022-12-25T21:41:53.565Z,8.00
2022-12-25T21:44:40.322Z,15.10
2022-12-25T21:47:26.617Z,6.90
2022-12-25T21:50:51.833Z,15.90
2022-12-25T21:53:37.915Z,8.50
2022-12-25T21:56:25.565Z,15.10
2022-12-25T21:59:14.383Z,16.40
2022-12-25T22:02:00.903Z,16.40
2022-12-25T22:04:47.467Z,14.40
2022-12-25T22:07:33.800Z,12.20
2022-12-25T22:10:20.356Z,16.00
2022-12-25T22:13:24.848Z,15.90
2022-12-25T22:16:30.019Z,11.70
2022-12-25T22:19:34.803Z,17.70
2022-12-25T22:22:23.293Z,14.30
2022-12-25T22:25:10.783Z,16.60
2022-12-25T22:27:57.285Z,16.40
2022-12-25T22:30:44.509Z,16.00
2022-12-25T22:33:31.090Z,21.60
2022-12-25T22:36:17.552Z,15.00
2022-12-25T22:39:04.068Z,14.00
2022-12-25T22:41:50.339Z,16.50
2022-12-25T22:44:36.692Z,13.00
2022-12-25T22:47:23.179Z,16.60
2022-12-25T22:50:10.317Z,16.90
2022-12-25T22:52:56.627Z,15.30
2022-12-25T22:55:49.491Z,11.40
2022-12-25T22:58:36.049Z,20.00
2022-12-25T23:01:22.350Z,13.90
2022-12-25T23:04:09.635Z,14.00
2022-12-25T23:06:55.991Z,14.90
2022-12-25T23:09:43.158Z,18.70
2022-12-25T23:12:48.140Z,17.50
2022-12-25T23:15:34.708Z,14.20
2022-12-25T23:18:39.807Z,14.90
2022-12-25T23:21:45.151Z,13.50
2022-12-25T23:24:49.867Z,9.90
2022-12-25T23:27:36.253Z,9.90
2022-12-25T23:30:22.731Z,16.40
2022-12-25T23:33:09.039Z,7.10
2022-12-25T23:35:55.263Z,6.20
2022-12-25T23:38:42.153Z,13.40
2022-12-25T23:41:28.746Z,13.20
2022-12-25T23:44:15.308Z,10.30
2022-12-25T23:47:01.577Z,10.50
2022-12-25T23:49:48.183Z,14.30
2022-12-25T23:52:34.540Z,13.90
2022-12-25T23:55:20.985Z,18.90
2022-12-25T23:58:07.293Z,12.60
